sensor_id;sensor_type;location;lat;lon;timestamp;temperature;humidity
11840;DHT22;5979;50.800;4.904;2022-09-03T00:00:06;18.00;99.90
11840;DHT22;5979;50.800;4.904;2022-09-03T00:02:46;18.10;99.90
11840;DHT22;5979;50.800;4.904;2022-09-03T00:05:36;18.00;99.90
11840;DHT22;5979;50.800;4.904;2022-09-03T00:08:35;18.10;99.90
11840;DHT22;5979;50.800;4.904;2022-09-03T00:11:15;18.10;99.90
11840;DHT22;5979;50.800;4.904;2022-09-03T00:14:11;18.10;99.90
11840;DHT22;5979;50.800;4.904;2022-09-03T00:16:58;18.20;99.90
11840;DHT22;5979;50.800;4.904;2022-09-03T00:19:31;18.10;99.90
11840;DHT22;5979;50.800;4.904;2022-09-03T00:22:04;18.10;99.90
11840;DHT22;5979;50.800;4.904;2022-09-03T00:24:35;18.10;99.90
11840;DHT22;5979;50.800;4.904;2022-09-03T00:27:05;18.10;99.90
11840;DHT22;5979;50.800;4.904;2022-09-03T00:29:36;18.20;99.90
11840;DHT22;5979;50.800;4.904;2022-09-03T00:32:17;18.20;99.90
11840;DHT22;5979;50.800;4.904;2022-09-03T00:34:49;18.30;99.90
11840;DHT22;5979;50.800;4.904;2022-09-03T00:37:15;18.30;99.90
11840;DHT22;5979;50.800;4.904;2022-09-03T00:39:41;18.30;99.90
11840;DHT22;5979;50.800;4.904;2022-09-03T00:44:43;18.40;99.90
11840;DHT22;5979;50.800;4.904;2022-09-03T01:01:21;18.50;99.90
11840;DHT22;5979;50.800;4.904;2022-09-03T01:04:00;18.50;99.90
11840;DHT22;5979;50.800;4.904;2022-09-03T01:10:12;18.50;99.90
11840;DHT22;5979;50.800;4.904;2022-09-03T01:20:26;18.40;99.90
11840;DHT22;5979;50.800;4.904;2022-09-03T01:25:37;18.50;99.90
11840;DHT22;5979;50.800;4.904;2022-09-03T01:28:41;18.40;99.90
11840;DHT22;5979;50.800;4.904;2022-09-03T01:31:17;18.50;99.90
11840;DHT22;5979;50.800;4.904;2022-09-03T01:36:42;18.40;99.90
11840;DHT22;5979;50.800;4.904;2022-09-03T01:47:59;18.20;99.90
11840;DHT22;5979;50.800;4.904;2022-09-03T02:04:19;18.20;99.90
11840;DHT22;5979;50.800;4.904;2022-09-03T02:06:51;18.20;99.90
11840;DHT22;5979;50.800;4.904;2022-09-03T02:09:18;18.20;99.90
11840;DHT22;5979;50.800;4.904;2022-09-03T02:11:50;18.20;99.90
11840;DHT22;5979;50.800;4.904;2022-09-03T02:14:18;18.20;99.90
11840;DHT22;5979;50.800;4.904;2022-09-03T02:16:44;18.20;99.90
11840;DHT22;5979;50.800;4.904;2022-09-03T02:19:13;18.20;99.90
11840;DHT22;5979;50.800;4.904;2022-09-03T02:21:50;18.30;99.90
11840;DHT22;5979;50.800;4.904;2022-09-03T02:24:17;18.20;99.90
11840;DHT22;5979;50.800;4.904;2022-09-03T02:26:43;18.20;99.90
11840;DHT22;5979;50.800;4.904;2022-09-03T02:29:09;18.20;99.90
11840;DHT22;5979;50.800;4.904;2022-09-03T02:31:35;18.10;99.90
11840;DHT22;5979;50.800;4.904;2022-09-03T02:34:01;18.10;99.90
11840;DHT22;5979;50.800;4.904;2022-09-03T02:36:30;18.10;99.90
11840;DHT22;5979;50.800;4.904;2022-09-03T02:38:56;18.10;99.90
11840;DHT22;5979;50.800;4.904;2022-09-03T02:41:22;18.00;99.90
11840;DHT22;5979;50.800;4.904;2022-09-03T02:46:43;18.00;99.90
11840;DHT22;5979;50.800;4.904;2022-09-03T02:49:09;17.90;99.90
11840;DHT22;5979;50.800;4.904;2022-09-03T02:51:37;17.90;99.90
11840;DHT22;5979;50.800;4.904;2022-09-03T02:54:04;17.90;99.90
11840;DHT22;5979;50.800;4.904;2022-09-03T02:56:30;17.90;99.90
11840;DHT22;5979;50.800;4.904;2022-09-03T02:58:55;17.90;99.90
11840;DHT22;5979;50.800;4.904;2022-09-03T03:01:21;17.90;99.90
11840;DHT22;5979;50.800;4.904;2022-09-03T03:03:48;17.90;99.90
11840;DHT22;5979;50.800;4.904;2022-09-03T03:06:14;17.90;99.90
11840;DHT22;5979;50.800;4.904;2022-09-03T03:08:40;17.80;99.90
11840;DHT22;5979;50.800;4.904;2022-09-03T03:11:06;17.80;99.90
11840;DHT22;5979;50.800;4.904;2022-09-03T03:13:32;17.80;99.90
11840;DHT22;5979;50.800;4.904;2022-09-03T03:16:00;17.90;99.90
11840;DHT22;5979;50.800;4.904;2022-09-03T03:18:26;17.90;99.90
11840;DHT22;5979;50.800;4.904;2022-09-03T03:20:52;18.00;99.90
11840;DHT22;5979;50.800;4.904;2022-09-03T03:23:19;18.00;99.90
11840;DHT22;5979;50.800;4.904;2022-09-03T03:25:45;18.00;99.90
11840;DHT22;5979;50.800;4.904;2022-09-03T03:28:10;18.10;99.90
11840;DHT22;5979;50.800;4.904;2022-09-03T03:30:38;18.10;99.90
11840;DHT22;5979;50.800;4.904;2022-09-03T03:33:08;18.20;99.90
11840;DHT22;5979;50.800;4.904;2022-09-03T03:35:34;18.30;99.90
11840;DHT22;5979;50.800;4.904;2022-09-03T03:38:00;18.30;99.90
11840;DHT22;5979;50.800;4.904;2022-09-03T03:40:26;18.30;99.90
11840;DHT22;5979;50.800;4.904;2022-09-03T03:42:52;18.40;99.90
11840;DHT22;5979;50.800;4.904;2022-09-03T03:45:18;18.40;99.90
11840;DHT22;5979;50.800;4.904;2022-09-03T03:47:44;18.40;99.90
11840;DHT22;5979;50.800;4.904;2022-09-03T03:50:10;18.40;99.90
11840;DHT22;5979;50.800;4.904;2022-09-03T03:52:35;18.50;99.90
11840;DHT22;5979;50.800;4.904;2022-09-03T03:55:01;18.50;99.90
11840;DHT22;5979;50.800;4.904;2022-09-03T03:57:29;18.50;99.90
11840;DHT22;5979;50.800;4.904;2022-09-03T03:59:55;18.50;99.90
11840;DHT22;5979;50.800;4.904;2022-09-03T04:02:21;18.50;99.90
11840;DHT22;5979;50.800;4.904;2022-09-03T04:04:46;18.50;99.90
11840;DHT22;5979;50.800;4.904;2022-09-03T04:07:12;18.50;99.90
11840;DHT22;5979;50.800;4.904;2022-09-03T04:09:37;18.50;99.90
11840;DHT22;5979;50.800;4.904;2022-09-03T04:12:03;18.50;99.90
11840;DHT22;5979;50.800;4.904;2022-09-03T04:14:33;18.40;99.90
11840;DHT22;5979;50.800;4.904;2022-09-03T04:16:59;18.30;99.90
11840;DHT22;5979;50.800;4.904;2022-09-03T04:19:25;18.30;99.90
11840;DHT22;5979;50.800;4.904;2022-09-03T04:21:52;18.30;99.90
11840;DHT22;5979;50.800;4.904;2022-09-03T04:24:18;18.30;99.90
11840;DHT22;5979;50.800;4.904;2022-09-03T04:26:44;18.30;99.90
11840;DHT22;5979;50.800;4.904;2022-09-03T04:29:09;18.30;99.90
11840;DHT22;5979;50.800;4.904;2022-09-03T04:31:36;18.30;99.90
11840;DHT22;5979;50.800;4.904;2022-09-03T04:34:03;18.30;99.90
11840;DHT22;5979;50.800;4.904;2022-09-03T04:36:31;18.30;99.90
11840;DHT22;5979;50.800;4.904;2022-09-03T04:38:58;18.30;99.90
11840;DHT22;5979;50.800;4.904;2022-09-03T04:41:28;18.30;99.90
11840;DHT22;5979;50.800;4.904;2022-09-03T04:43:55;18.30;99.90
11840;DHT22;5979;50.800;4.904;2022-09-03T04:46:24;18.30;99.90
11840;DHT22;5979;50.800;4.904;2022-09-03T04:48:52;18.30;99.90
11840;DHT22;5979;50.800;4.904;2022-09-03T04:51:24;18.30;99.90
11840;DHT22;5979;50.800;4.904;2022-09-03T04:53:56;18.30;99.90
11840;DHT22;5979;50.800;4.904;2022-09-03T04:56:25;18.20;99.90
11840;DHT22;5979;50.800;4.904;2022-09-03T04:59:06;18.10;99.90
11840;DHT22;5979;50.800;4.904;2022-09-03T05:01:34;18.00;99.90
11840;DHT22;5979;50.800;4.904;2022-09-03T05:04:00;18.10;99.90
11840;DHT22;5979;50.800;4.904;2022-09-03T05:06:27;18.10;99.90
11840;DHT22;5979;50.800;4.904;2022-09-03T05:08:54;18.10;99.90
11840;DHT22;5979;50.800;4.904;2022-09-03T05:11:21;18.10;99.90
11840;DHT22;5979;50.800;4.904;2022-09-03T05:13:51;18.10;99.90
11840;DHT22;5979;50.800;4.904;2022-09-03T05:16:19;18.20;99.90
11840;DHT22;5979;50.800;4.904;2022-09-03T05:18:46;18.20;99.90
11840;DHT22;5979;50.800;4.904;2022-09-03T05:21:14;18.20;99.90
11840;DHT22;5979;50.800;4.904;2022-09-03T05:23:45;18.10;99.90
11840;DHT22;5979;50.800;4.904;2022-09-03T05:26:19;18.00;99.90
11840;DHT22;5979;50.800;4.904;2022-09-03T05:28:46;18.00;99.90
11840;DHT22;5979;50.800;4.904;2022-09-03T05:31:17;17.90;99.90
11840;DHT22;5979;50.800;4.904;2022-09-03T05:33:54;17.90;99.90
11840;DHT22;5979;50.800;4.904;2022-09-03T05:36:24;18.00;99.90
11840;DHT22;5979;50.800;4.904;2022-09-03T05:38:50;18.00;99.90
11840;DHT22;5979;50.800;4.904;2022-09-03T05:41:18;18.00;99.90
11840;DHT22;5979;50.800;4.904;2022-09-03T05:43:47;18.10;99.90
11840;DHT22;5979;50.800;4.904;2022-09-03T05:46:17;18.20;99.90
11840;DHT22;5979;50.800;4.904;2022-09-03T05:48:43;18.30;99.90
11840;DHT22;5979;50.800;4.904;2022-09-03T05:51:11;18.40;99.90
11840;DHT22;5979;50.800;4.904;2022-09-03T05:53:39;18.50;99.90
11840;DHT22;5979;50.800;4.904;2022-09-03T05:56:10;18.60;99.90
11840;DHT22;5979;50.800;4.904;2022-09-03T05:58:41;18.60;99.90
11840;DHT22;5979;50.800;4.904;2022-09-03T06:01:23;18.60;99.90
11840;DHT22;5979;50.800;4.904;2022-09-03T06:06:20;18.70;99.90
11840;DHT22;5979;50.800;4.904;2022-09-03T06:08:58;18.80;99.90
11840;DHT22;5979;50.800;4.904;2022-09-03T06:11:25;18.80;99.90
11840;DHT22;5979;50.800;4.904;2022-09-03T06:13:53;19.00;99.90
11840;DHT22;5979;50.800;4.904;2022-09-03T06:16:19;19.00;99.90
11840;DHT22;5979;50.800;4.904;2022-09-03T06:18:46;19.00;99.90
11840;DHT22;5979;50.800;4.904;2022-09-03T06:21:11;19.00;99.90
11840;DHT22;5979;50.800;4.904;2022-09-03T06:23:39;19.10;99.90
11840;DHT22;5979;50.800;4.904;2022-09-03T06:26:09;19.20;99.90
11840;DHT22;5979;50.800;4.904;2022-09-03T06:28:38;19.30;99.90
11840;DHT22;5979;50.800;4.904;2022-09-03T06:31:06;19.40;99.90
11840;DHT22;5979;50.800;4.904;2022-09-03T06:33:34;19.60;99.90
11840;DHT22;5979;50.800;4.904;2022-09-03T06:36:02;19.60;99.90
11840;DHT22;5979;50.800;4.904;2022-09-03T06:38:30;19.60;99.90
11840;DHT22;5979;50.800;4.904;2022-09-03T06:41:04;19.70;99.90
11840;DHT22;5979;50.800;4.904;2022-09-03T06:43:32;19.70;99.90
11840;DHT22;5979;50.800;4.904;2022-09-03T06:48:30;19.80;99.90
11840;DHT22;5979;50.800;4.904;2022-09-03T06:53:28;19.90;99.90
11840;DHT22;5979;50.800;4.904;2022-09-03T06:56:11;19.90;99.90
11840;DHT22;5979;50.800;4.904;2022-09-03T06:58:43;20.00;99.90
11840;DHT22;5979;50.800;4.904;2022-09-03T07:01:11;20.20;99.90
11840;DHT22;5979;50.800;4.904;2022-09-03T07:03:38;20.20;99.90
11840;DHT22;5979;50.800;4.904;2022-09-03T07:06:16;20.20;99.90
11840;DHT22;5979;50.800;4.904;2022-09-03T07:08:43;20.30;99.90
11840;DHT22;5979;50.800;4.904;2022-09-03T07:11:17;20.40;99.90
11840;DHT22;5979;50.800;4.904;2022-09-03T07:13:46;20.60;99.90
11840;DHT22;5979;50.800;4.904;2022-09-03T07:16:17;20.70;99.90
11840;DHT22;5979;50.800;4.904;2022-09-03T07:18:44;20.90;99.90
11840;DHT22;5979;50.800;4.904;2022-09-03T07:21:12;21.00;99.90
11840;DHT22;5979;50.800;4.904;2022-09-03T07:23:39;21.10;99.90
11840;DHT22;5979;50.800;4.904;2022-09-03T07:26:06;21.30;99.90
11840;DHT22;5979;50.800;4.904;2022-09-03T07:28:36;21.40;99.90
11840;DHT22;5979;50.800;4.904;2022-09-03T07:31:13;21.50;99.90
11840;DHT22;5979;50.800;4.904;2022-09-03T07:33:39;21.60;99.90
11840;DHT22;5979;50.800;4.904;2022-09-03T07:36:15;21.70;99.90
11840;DHT22;5979;50.800;4.904;2022-09-03T07:38:43;21.90;99.90
11840;DHT22;5979;50.800;4.904;2022-09-03T07:41:10;21.90;99.90
11840;DHT22;5979;50.800;4.904;2022-09-03T07:43:42;22.00;99.90
11840;DHT22;5979;50.800;4.904;2022-09-03T07:46:09;22.10;99.90
11840;DHT22;5979;50.800;4.904;2022-09-03T07:48:40;22.20;99.90
11840;DHT22;5979;50.800;4.904;2022-09-03T07:51:07;22.40;99.90
11840;DHT22;5979;50.800;4.904;2022-09-03T07:53:33;22.50;99.90
11840;DHT22;5979;50.800;4.904;2022-09-03T07:56:06;22.60;99.90
11840;DHT22;5979;50.800;4.904;2022-09-03T07:58:33;22.60;99.90
11840;DHT22;5979;50.800;4.904;2022-09-03T08:01:08;22.80;99.90
11840;DHT22;5979;50.800;4.904;2022-09-03T08:03:35;22.90;99.90
11840;DHT22;5979;50.800;4.904;2022-09-03T08:06:07;23.00;99.90
11840;DHT22;5979;50.800;4.904;2022-09-03T08:08:34;23.10;99.90
11840;DHT22;5979;50.800;4.904;2022-09-03T08:11:17;23.30;99.90
11840;DHT22;5979;50.800;4.904;2022-09-03T08:13:45;23.40;99.90
11840;DHT22;5979;50.800;4.904;2022-09-03T08:16:16;23.60;99.90
11840;DHT22;5979;50.800;4.904;2022-09-03T08:18:45;23.80;99.90
11840;DHT22;5979;50.800;4.904;2022-09-03T08:21:16;24.00;99.90
11840;DHT22;5979;50.800;4.904;2022-09-03T08:23:47;24.30;99.90
11840;DHT22;5979;50.800;4.904;2022-09-03T08:26:14;24.40;99.90
11840;DHT22;5979;50.800;4.904;2022-09-03T08:28:41;24.60;99.90
11840;DHT22;5979;50.800;4.904;2022-09-03T08:31:18;24.70;99.90
11840;DHT22;5979;50.800;4.904;2022-09-03T08:33:47;24.60;99.90
11840;DHT22;5979;50.800;4.904;2022-09-03T08:38:44;24.70;99.90
11840;DHT22;5979;50.800;4.904;2022-09-03T08:41:26;24.70;99.90
11840;DHT22;5979;50.800;4.904;2022-09-03T08:55:35;24.50;99.90
11840;DHT22;5979;50.800;4.904;2022-09-03T08:58:18;24.50;99.90
11840;DHT22;5979;50.800;4.904;2022-09-03T09:01:03;24.50;99.90
11840;DHT22;5979;50.800;4.904;2022-09-03T09:06:31;24.60;99.90
11840;DHT22;5979;50.800;4.904;2022-09-03T09:12:15;24.80;99.90
11840;DHT22;5979;50.800;4.904;2022-09-03T09:23:02;25.60;99.90
11840;DHT22;5979;50.800;4.904;2022-09-03T09:25:29;25.80;99.90
11840;DHT22;5979;50.800;4.904;2022-09-03T09:28:00;26.10;99.90
11840;DHT22;5979;50.800;4.904;2022-09-03T09:30:27;26.40;99.90
11840;DHT22;5979;50.800;4.904;2022-09-03T09:32:53;26.80;99.90
11840;DHT22;5979;50.800;4.904;2022-09-03T09:35:20;27.10;99.90
11840;DHT22;5979;50.800;4.904;2022-09-03T09:37:57;27.40;99.90
11840;DHT22;5979;50.800;4.904;2022-09-03T09:40:31;27.80;99.90
11840;DHT22;5979;50.800;4.904;2022-09-03T09:43:06;28.10;99.90
11840;DHT22;5979;50.800;4.904;2022-09-03T09:45:32;28.60;99.90
11840;DHT22;5979;50.800;4.904;2022-09-03T09:48:00;28.80;99.90
11840;DHT22;5979;50.800;4.904;2022-09-03T09:50:26;29.10;99.90
11840;DHT22;5979;50.800;4.904;2022-09-03T09:53:03;29.30;99.90
11840;DHT22;5979;50.800;4.904;2022-09-03T09:55:33;29.40;99.90
11840;DHT22;5979;50.800;4.904;2022-09-03T09:58:06;29.50;99.90
11840;DHT22;5979;50.800;4.904;2022-09-03T10:00:34;29.60;99.90
11840;DHT22;5979;50.800;4.904;2022-09-03T10:03:08;29.60;99.90
11840;DHT22;5979;50.800;4.904;2022-09-03T10:05:35;29.60;99.90
11840;DHT22;5979;50.800;4.904;2022-09-03T10:08:06;29.60;99.90
11840;DHT22;5979;50.800;4.904;2022-09-03T10:10:45;29.70;99.90
11840;DHT22;5979;50.800;4.904;2022-09-03T10:13:18;29.70;99.90
11840;DHT22;5979;50.800;4.904;2022-09-03T10:15:51;29.70;99.90
11840;DHT22;5979;50.800;4.904;2022-09-03T10:18:39;29.70;99.90
11840;DHT22;5979;50.800;4.904;2022-09-03T10:21:19;29.80;99.90
11840;DHT22;5979;50.800;4.904;2022-09-03T10:26:42;29.60;99.90
11840;DHT22;5979;50.800;4.904;2022-09-03T10:29:11;29.60;99.90
11840;DHT22;5979;50.800;4.904;2022-09-03T10:56:04;29.60;99.90
11840;DHT22;5979;50.800;4.904;2022-09-03T11:04:37;28.90;99.90
11840;DHT22;5979;50.800;4.904;2022-09-03T11:07:12;28.80;99.90
11840;DHT22;5979;50.800;4.904;2022-09-03T11:12:38;28.70;99.90
11840;DHT22;5979;50.800;4.904;2022-09-03T11:15:11;28.70;99.90
11840;DHT22;5979;50.800;4.904;2022-09-03T11:17:46;28.80;99.90
11840;DHT22;5979;50.800;4.904;2022-09-03T11:20:22;29.00;99.90
11840;DHT22;5979;50.800;4.904;2022-09-03T11:22:52;29.20;99.90
11840;DHT22;5979;50.800;4.904;2022-09-03T11:25:20;29.40;99.90
11840;DHT22;5979;50.800;4.904;2022-09-03T11:28:11;29.40;99.90
11840;DHT22;5979;50.800;4.904;2022-09-03T11:33:26;28.80;99.90
11840;DHT22;5979;50.800;4.904;2022-09-03T11:36:00;28.80;99.90
11840;DHT22;5979;50.800;4.904;2022-09-03T11:38:28;28.90;99.90
11840;DHT22;5979;50.800;4.904;2022-09-03T11:41:14;29.00;99.90
11840;DHT22;5979;50.800;4.904;2022-09-03T11:43:41;29.00;99.90
11840;DHT22;5979;50.800;4.904;2022-09-03T11:48:54;29.10;99.90
11840;DHT22;5979;50.800;4.904;2022-09-03T11:56:48;29.10;99.90
11840;DHT22;5979;50.800;4.904;2022-09-03T11:59:25;29.00;99.90
11840;DHT22;5979;50.800;4.904;2022-09-03T12:02:04;29.00;99.90
11840;DHT22;5979;50.800;4.904;2022-09-03T12:04:37;29.10;99.90
11840;DHT22;5979;50.800;4.904;2022-09-03T12:07:43;29.10;99.90
11840;DHT22;5979;50.800;4.904;2022-09-03T12:10:21;28.90;99.90
11840;DHT22;5979;50.800;4.904;2022-09-03T12:13:24;28.60;99.90
11840;DHT22;5979;50.800;4.904;2022-09-03T12:18:44;28.10;99.90
11840;DHT22;5979;50.800;4.904;2022-09-03T12:21:16;28.00;99.90
11840;DHT22;5979;50.800;4.904;2022-09-03T12:23:47;27.90;99.90
11840;DHT22;5979;50.800;4.904;2022-09-03T12:26:22;27.80;99.90
11840;DHT22;5979;50.800;4.904;2022-09-03T12:28:51;27.70;99.90
11840;DHT22;5979;50.800;4.904;2022-09-03T12:31:29;27.50;99.90
11840;DHT22;5979;50.800;4.904;2022-09-03T12:33:59;27.30;99.90
11840;DHT22;5979;50.800;4.904;2022-09-03T12:36:36;27.20;99.90
11840;DHT22;5979;50.800;4.904;2022-09-03T12:39:19;27.10;99.90
11840;DHT22;5979;50.800;4.904;2022-09-03T12:42:04;27.10;99.90
11840;DHT22;5979;50.800;4.904;2022-09-03T12:47:01;26.70;99.90
11840;DHT22;5979;50.800;4.904;2022-09-03T12:49:34;26.70;99.90
11840;DHT22;5979;50.800;4.904;2022-09-03T12:52:07;26.60;99.90
11840;DHT22;5979;50.800;4.904;2022-09-03T12:54:37;26.50;99.90
11840;DHT22;5979;50.800;4.904;2022-09-03T12:57:03;26.60;99.90
11840;DHT22;5979;50.800;4.904;2022-09-03T12:59:33;26.60;99.90
11840;DHT22;5979;50.800;4.904;2022-09-03T13:02:13;26.60;99.90
11840;DHT22;5979;50.800;4.904;2022-09-03T13:04:41;26.80;99.90
11840;DHT22;5979;50.800;4.904;2022-09-03T13:07:30;26.90;99.90
11840;DHT22;5979;50.800;4.904;2022-09-03T13:10:04;27.00;99.90
11840;DHT22;5979;50.800;4.904;2022-09-03T13:12:42;27.20;99.90
11840;DHT22;5979;50.800;4.904;2022-09-03T13:15:17;27.30;99.90
11840;DHT22;5979;50.800;4.904;2022-09-03T13:21:05;27.60;99.90
11840;DHT22;5979;50.800;4.904;2022-09-03T13:26:42;27.80;99.90
11840;DHT22;5979;50.800;4.904;2022-09-03T13:32:23;27.90;99.90
11840;DHT22;5979;50.800;4.904;2022-09-03T13:34:54;27.90;99.90
11840;DHT22;5979;50.800;4.904;2022-09-03T13:37:41;28.00;99.90
11840;DHT22;5979;50.800;4.904;2022-09-03T13:40:13;27.90;99.90
11840;DHT22;5979;50.800;4.904;2022-09-03T13:42:44;27.90;99.90
11840;DHT22;5979;50.800;4.904;2022-09-03T13:45:26;27.90;99.90
11840;DHT22;5979;50.800;4.904;2022-09-03T13:48:07;27.90;99.90
11840;DHT22;5979;50.800;4.904;2022-09-03T13:51:18;28.00;99.90
11840;DHT22;5979;50.800;4.904;2022-09-03T14:05:17;28.70;99.90
11840;DHT22;5979;50.800;4.904;2022-09-03T14:10:20;28.80;99.90
11840;DHT22;5979;50.800;4.904;2022-09-03T14:12:54;28.80;99.90
11840;DHT22;5979;50.800;4.904;2022-09-03T14:16:10;28.90;99.90
11840;DHT22;5979;50.800;4.904;2022-09-03T14:18:58;29.00;99.90
11840;DHT22;5979;50.800;4.904;2022-09-03T14:21:34;29.10;99.90
11840;DHT22;5979;50.800;4.904;2022-09-03T14:26:53;29.20;99.90
11840;DHT22;5979;50.800;4.904;2022-09-03T14:29:25;29.20;99.90
11840;DHT22;5979;50.800;4.904;2022-09-03T14:40:16;29.20;99.90
11840;DHT22;5979;50.800;4.904;2022-09-03T14:45:55;29.10;99.90
11840;DHT22;5979;50.800;4.904;2022-09-03T15:00:54;29.00;99.90
11840;DHT22;5979;50.800;4.904;2022-09-03T15:03:41;29.00;99.90
11840;DHT22;5979;50.800;4.904;2022-09-03T15:06:19;28.80;99.90
11840;DHT22;5979;50.800;4.904;2022-09-03T15:11:33;28.60;99.90
11840;DHT22;5979;50.800;4.904;2022-09-03T15:14:17;28.60;99.90
11840;DHT22;5979;50.800;4.904;2022-09-03T15:22:41;28.20;99.90
11840;DHT22;5979;50.800;4.904;2022-09-03T15:28:06;28.10;99.90
11840;DHT22;5979;50.800;4.904;2022-09-03T15:30:42;28.00;99.90
11840;DHT22;5979;50.800;4.904;2022-09-03T15:36:24;28.00;99.90
11840;DHT22;5979;50.800;4.904;2022-09-03T15:41:34;27.90;99.90
11840;DHT22;5979;50.800;4.904;2022-09-03T15:44:02;27.90;99.90
11840;DHT22;5979;50.800;4.904;2022-09-03T15:47:04;27.80;99.90
11840;DHT22;5979;50.800;4.904;2022-09-03T15:52:29;27.60;99.90
11840;DHT22;5979;50.800;4.904;2022-09-03T15:55:09;27.50;99.90
11840;DHT22;5979;50.800;4.904;2022-09-03T15:57:46;27.50;99.90
11840;DHT22;5979;50.800;4.904;2022-09-03T16:00:19;27.50;99.90
11840;DHT22;5979;50.800;4.904;2022-09-03T16:02:52;27.50;99.90
11840;DHT22;5979;50.800;4.904;2022-09-03T16:06:03;27.50;99.90
11840;DHT22;5979;50.800;4.904;2022-09-03T16:08:55;27.40;99.90
11840;DHT22;5979;50.800;4.904;2022-09-03T16:14:20;27.30;99.90
11840;DHT22;5979;50.800;4.904;2022-09-03T16:16:56;27.20;99.90
11840;DHT22;5979;50.800;4.904;2022-09-03T16:19:33;27.10;99.90
11840;DHT22;5979;50.800;4.904;2022-09-03T16:22:11;26.90;99.90
11840;DHT22;5979;50.800;4.904;2022-09-03T16:24:50;26.70;99.90
11840;DHT22;5979;50.800;4.904;2022-09-03T16:27:21;26.40;99.90
11840;DHT22;5979;50.800;4.904;2022-09-03T16:30:21;26.20;99.90
11840;DHT22;5979;50.800;4.904;2022-09-03T16:43:52;25.40;99.90
11840;DHT22;5979;50.800;4.904;2022-09-03T16:46:36;25.30;99.90
11840;DHT22;5979;50.800;4.904;2022-09-03T17:00:08;25.40;99.90
11840;DHT22;5979;50.800;4.904;2022-09-03T17:05:19;25.50;99.90
11840;DHT22;5979;50.800;4.904;2022-09-03T17:10:59;25.60;99.90
11840;DHT22;5979;50.800;4.904;2022-09-03T17:16:52;25.70;99.90
11840;DHT22;5979;50.800;4.904;2022-09-03T17:19:47;25.60;99.90
11840;DHT22;5979;50.800;4.904;2022-09-03T17:25:35;25.60;99.90
11840;DHT22;5979;50.800;4.904;2022-09-03T17:28:15;25.40;99.90
11840;DHT22;5979;50.800;4.904;2022-09-03T17:45:26;24.10;99.90
11840;DHT22;5979;50.800;4.904;2022-09-03T17:50:30;24.00;99.90
11840;DHT22;5979;50.800;4.904;2022-09-03T17:53:20;24.00;99.90
11840;DHT22;5979;50.800;4.904;2022-09-03T17:56:00;24.00;99.90
11840;DHT22;5979;50.800;4.904;2022-09-03T17:58:38;24.00;99.90
11840;DHT22;5979;50.800;4.904;2022-09-03T18:06:53;23.90;99.90
11840;DHT22;5979;50.800;4.904;2022-09-03T18:09:36;23.90;99.90
11840;DHT22;5979;50.800;4.904;2022-09-03T18:12:18;23.80;99.90
11840;DHT22;5979;50.800;4.904;2022-09-03T18:14:55;23.80;99.90
11840;DHT22;5979;50.800;4.904;2022-09-03T18:17:34;23.80;99.90
11840;DHT22;5979;50.800;4.904;2022-09-03T18:20:07;23.70;99.90
11840;DHT22;5979;50.800;4.904;2022-09-03T18:26:02;23.60;99.90
11840;DHT22;5979;50.800;4.904;2022-09-03T18:31:34;23.50;99.90
11840;DHT22;5979;50.800;4.904;2022-09-03T18:34:24;23.40;99.90
11840;DHT22;5979;50.800;4.904;2022-09-03T18:37:11;23.40;99.90
11840;DHT22;5979;50.800;4.904;2022-09-03T18:39:57;23.30;99.90
11840;DHT22;5979;50.800;4.904;2022-09-03T18:42:55;23.20;99.90
11840;DHT22;5979;50.800;4.904;2022-09-03T18:49:05;23.10;99.90
11840;DHT22;5979;50.800;4.904;2022-09-03T18:55:16;23.10;99.90
11840;DHT22;5979;50.800;4.904;2022-09-03T19:10:21;23.00;99.90
11840;DHT22;5979;50.800;4.904;2022-09-03T19:13:20;22.90;99.90
11840;DHT22;5979;50.800;4.904;2022-09-03T19:22:11;22.80;99.90
11840;DHT22;5979;50.800;4.904;2022-09-03T19:25:03;22.70;99.90
11840;DHT22;5979;50.800;4.904;2022-09-03T19:34:16;22.60;99.90
11840;DHT22;5979;50.800;4.904;2022-09-03T19:49:13;22.30;99.90
11840;DHT22;5979;50.800;4.904;2022-09-03T19:52:08;22.20;99.90
11840;DHT22;5979;50.800;4.904;2022-09-03T19:54:56;22.10;99.90
11840;DHT22;5979;50.800;4.904;2022-09-03T19:57:43;22.00;99.90
11840;DHT22;5979;50.800;4.904;2022-09-03T20:00:30;21.90;99.90
11840;DHT22;5979;50.800;4.904;2022-09-03T20:03:15;21.70;99.90
11840;DHT22;5979;50.800;4.904;2022-09-03T20:06:02;21.50;99.90
11840;DHT22;5979;50.800;4.904;2022-09-03T20:08:49;21.40;99.90
11840;DHT22;5979;50.800;4.904;2022-09-03T20:11:36;21.40;99.90
11840;DHT22;5979;50.800;4.904;2022-09-03T20:14:03;21.30;99.90
11840;DHT22;5979;50.800;4.904;2022-09-03T20:23:11;21.20;99.90
11840;DHT22;5979;50.800;4.904;2022-09-03T20:25:27;21.20;99.90
11840;DHT22;5979;50.800;4.904;2022-09-03T20:31:16;21.00;99.90
11840;DHT22;5979;50.800;4.904;2022-09-03T20:34:12;21.00;99.90
11840;DHT22;5979;50.800;4.904;2022-09-03T20:42:39;21.10;99.90
11840;DHT22;5979;50.800;4.904;2022-09-03T20:45:57;21.10;99.90
11840;DHT22;5979;50.800;4.904;2022-09-03T20:51:07;21.00;99.90
11840;DHT22;5979;50.800;4.904;2022-09-03T21:01:26;21.00;99.90
11840;DHT22;5979;50.800;4.904;2022-09-03T21:06:31;21.00;99.90
11840;DHT22;5979;50.800;4.904;2022-09-03T21:09:32;21.00;99.90
11840;DHT22;5979;50.800;4.904;2022-09-03T21:12:17;21.00;99.90
11840;DHT22;5979;50.800;4.904;2022-09-03T21:18:11;21.00;99.90
11840;DHT22;5979;50.800;4.904;2022-09-03T21:21:05;20.90;99.90
11840;DHT22;5979;50.800;4.904;2022-09-03T21:23:40;20.90;99.90
11840;DHT22;5979;50.800;4.904;2022-09-03T21:26:25;20.80;99.90
11840;DHT22;5979;50.800;4.904;2022-09-03T21:29:05;20.80;99.90
11840;DHT22;5979;50.800;4.904;2022-09-03T21:31:37;20.80;99.90
11840;DHT22;5979;50.800;4.904;2022-09-03T21:34:18;20.80;99.90
11840;DHT22;5979;50.800;4.904;2022-09-03T21:36:45;20.80;99.90
11840;DHT22;5979;50.800;4.904;2022-09-03T21:41:49;20.80;99.90
11840;DHT22;5979;50.800;4.904;2022-09-03T21:47:17;20.80;99.90
11840;DHT22;5979;50.800;4.904;2022-09-03T21:52:48;20.70;99.90
11840;DHT22;5979;50.800;4.904;2022-09-03T22:01:05;20.50;99.90
11840;DHT22;5979;50.800;4.904;2022-09-03T22:03:33;20.50;99.90
11840;DHT22;5979;50.800;4.904;2022-09-03T22:06:07;20.40;99.90
11840;DHT22;5979;50.800;4.904;2022-09-03T22:11:11;20.30;99.90
11840;DHT22;5979;50.800;4.904;2022-09-03T22:14:23;20.30;99.90
11840;DHT22;5979;50.800;4.904;2022-09-03T22:16:46;20.20;99.90
11840;DHT22;5979;50.800;4.904;2022-09-03T22:19:16;20.10;99.90
11840;DHT22;5979;50.800;4.904;2022-09-03T22:32:48;19.90;99.90
11840;DHT22;5979;50.800;4.904;2022-09-03T22:38:28;19.80;99.90
11840;DHT22;5979;50.800;4.904;2022-09-03T22:47:50;19.60;99.90
11840;DHT22;5979;50.800;4.904;2022-09-03T22:50:06;19.50;99.90
11840;DHT22;5979;50.800;4.904;2022-09-03T22:52:44;19.40;99.90
11840;DHT22;5979;50.800;4.904;2022-09-03T22:55:23;19.40;99.90
11840;DHT22;5979;50.800;4.904;2022-09-03T23:00:28;19.30;99.90
11840;DHT22;5979;50.800;4.904;2022-09-03T23:03:13;19.30;99.90
11840;DHT22;5979;50.800;4.904;2022-09-03T23:05:58;19.30;99.90